Terminal Aerodrome Forecast
Issued by NWS

Current Version | Previous Version | Text Only | Print | Product List | Glossary Off
Versions: 1 2 3 4 5 6 7 8 9 10 11 12 13 14 15 16 17 18 19 20 21 22 23

000
FTUS41 KPBZ 141700
TAFHLG
TAF
KHLG 141720Z 1418/1518 21016G34KT P6SM -SHRA OVC045
     FM150300 VRB05KT 3SM -RA OVC012
     FM150900 31012KT 3SM -SHRA OVC010
     FM151500 32015G25KT 4SM -SHSN OVC010=

USA.gov is the U.S. government's official web portal to all federal, state and local government web resources and services.